Time;durP1;ratioP1;P1;durP2;ratioP2;P2;SDS_P1;SDS_P2;PMS_P1;PMS_P2;Temp;Humidity;BMP_temperature;BMP_pressure;BME280_temperature;BME280_humidity;BME280_pressure;Samples;Min_cycle;Max_cycle;Signal;HPM_P1;HPM_P2
2022/12/12 00:00:43;;;;;;;18.95;11.45;;;4.60;99.90;;;;;;4978065;28;20183;-76
2022/12/12 00:03:09;;;;;;;16.83;10.45;;;4.60;99.90;;;;;;4961799;28;20251;-76
2022/12/12 00:05:39;;;;;;;17.02;10.57;;;4.60;99.90;;;;;;4961834;28;20162;-76
2022/12/12 00:08:05;;;;;;;19.00;10.65;;;4.50;99.90;;;;;;4994723;28;20155;-76
2022/12/12 00:10:34;;;;;;;16.90;10.38;;;4.60;99.90;;;;;;4961783;28;20167;-76
2022/12/12 00:13:01;;;;;;;19.30;11.25;;;4.60;99.90;;;;;;4995042;28;20182;-76
2022/12/12 00:15:29;;;;;;;19.42;11.65;;;4.60;99.90;;;;;;4977628;28;20178;-76
2022/12/12 00:17:57;;;;;;;20.37;11.60;;;4.60;99.90;;;;;;4961633;28;20170;-76
2022/12/12 00:20:23;;;;;;;19.02;11.25;;;4.60;99.90;;;;;;4959852;28;20430;-75
2022/12/12 00:22:51;;;;;;;19.38;11.52;;;4.60;99.90;;;;;;4993298;28;20210;-75
2022/12/12 00:25:17;;;;;;;20.30;12.18;;;4.60;99.90;;;;;;4975608;28;20218;-76
2022/12/12 00:27:43;;;;;;;18.23;11.70;;;4.60;99.90;;;;;;4959648;28;20196;-75
2022/12/12 00:30:09;;;;;;;15.32;10.20;;;4.50;99.90;;;;;;4959435;28;20440;-75
2022/12/12 00:32:37;;;;;;;17.30;10.68;;;4.60;99.90;;;;;;4975607;28;20217;-75
2022/12/12 00:35:04;;;;;;;16.42;11.30;;;4.60;99.90;;;;;;4943697;28;20190;-75
2022/12/12 00:37:30;;;;;;;19.10;11.20;;;4.60;99.90;;;;;;4959742;28;20210;-76
2022/12/12 00:39:56;;;;;;;17.67;11.00;;;4.60;99.90;;;;;;4974861;28;20178;-75
2022/12/12 00:42:22;;;;;;;20.63;11.77;;;4.60;99.90;;;;;;4975551;28;20220;-75
2022/12/12 00:44:49;;;;;;;19.75;11.30;;;4.60;99.90;;;;;;4959629;28;20576;-75
2022/12/12 00:47:15;;;;;;;19.17;11.37;;;4.60;99.90;;;;;;4975038;28;20301;-75
2022/12/12 00:49:43;;;;;;;20.10;11.48;;;4.60;99.90;;;;;;4958968;28;20429;-75
2022/12/12 00:52:09;;;;;;;19.55;11.57;;;4.60;99.90;;;;;;4975526;28;20362;-75
2022/12/12 00:54:35;;;;;;;20.70;11.70;;;4.60;99.90;;;;;;4974748;28;20237;-75
2022/12/12 00:57:01;;;;;;;21.97;12.30;;;4.60;99.90;;;;;;4975521;28;20461;-75
2022/12/12 00:59:31;;;;;;;17.47;10.70;;;4.60;99.90;;;;;;4959208;28;20472;-75
2022/12/12 01:01:57;;;;;;;15.40;10.35;;;4.60;99.90;;;;;;4940483;28;20475;-75
2022/12/12 01:04:25;;;;;;;20.83;11.85;;;4.60;99.90;;;;;;4940037;28;20565;-76
2022/12/12 01:06:51;;;;;;;21.00;11.95;;;4.60;99.90;;;;;;4958643;28;20277;-75
2022/12/12 01:09:17;;;;;;;20.17;11.80;;;4.60;99.90;;;;;;4974847;28;20258;-75
2022/12/12 01:11:46;;;;;;;18.25;11.43;;;4.60;99.90;;;;;;4939788;28;20464;-75
2022/12/12 01:14:14;;;;;;;19.08;10.85;;;4.60;99.90;;;;;;4956074;28;20179;-75
2022/12/12 01:16:42;;;;;;;16.55;10.93;;;4.60;99.90;;;;;;4957380;28;20290;-76
2022/12/12 01:19:10;;;;;;;19.77;11.70;;;4.60;99.90;;;;;;4974226;28;20171;-75
2022/12/12 01:21:36;;;;;;;16.85;10.13;;;4.60;99.90;;;;;;4958710;28;20532;-75
2022/12/12 01:24:02;;;;;;;18.83;11.33;;;4.60;99.90;;;;;;4974694;28;20334;-75
2022/12/12 01:26:28;;;;;;;16.45;11.65;;;4.60;99.90;;;;;;4958984;28;20456;-75
2022/12/12 01:28:55;;;;;;;17.92;11.52;;;4.60;99.90;;;;;;4974549;28;20174;-75
2022/12/12 01:31:23;;;;;;;19.67;10.38;;;4.60;99.90;;;;;;4992242;28;20202;-75
2022/12/12 01:33:50;;;;;;;20.83;12.27;;;4.60;99.90;;;;;;4974640;28;20591;-76
2022/12/12 01:36:18;;;;;;;15.95;9.82;;;4.60;99.90;;;;;;4974805;28;21135;-75
2022/12/12 01:38:49;;;;;;;16.05;10.20;;;4.60;99.90;;;;;;4958554;28;20554;-75
2022/12/12 01:41:16;;;;;;;18.70;10.57;;;4.60;99.90;;;;;;4955151;28;20221;-75
2022/12/12 01:43:42;;;;;;;23.13;10.93;;;4.60;99.90;;;;;;4948898;28;20211;-75
2022/12/12 01:46:32;;;;;;;17.30;11.38;;;4.60;99.90;;;;;;4958805;28;20181;-75
2022/12/12 01:49:04;;;;;;;14.82;10.70;;;4.60;99.90;;;;;;4974440;28;20226;-76
2022/12/12 01:51:31;;;;;;;17.67;9.85;;;4.60;99.90;;;;;;4974250;28;20205;-75
2022/12/12 01:54:06;;;;;;;17.85;11.50;;;4.60;99.90;;;;;;4958650;28;20657;-75
2022/12/12 01:56:33;;;;;;;17.48;10.07;;;4.60;99.90;;;;;;4992006;28;20567;-75
2022/12/12 01:59:04;;;;;;;16.83;11.18;;;4.60;99.90;;;;;;4991845;28;20655;-75
2022/12/12 02:01:30;;;;;;;17.50;12.00;;;4.60;99.90;;;;;;4991022;28;20210;-75
2022/12/12 02:03:59;;;;;;;17.83;10.38;;;4.60;99.90;;;;;;4958242;28;20210;-75
2022/12/12 02:06:26;;;;;;;17.17;10.73;;;4.60;99.90;;;;;;4974724;28;20628;-75
2022/12/12 02:08:59;;;;;;;19.60;11.05;;;4.60;99.90;;;;;;4958566;28;20220;-75
2022/12/12 02:11:27;;;;;;;15.60;10.25;;;4.60;99.90;;;;;;4957478;28;21558;-75
2022/12/12 02:13:53;;;;;;;17.02;11.38;;;4.50;99.90;;;;;;4974447;28;20170;-75
2022/12/12 02:16:46;;;;;;;15.95;10.90;;;4.50;99.90;;;;;;4974370;28;20652;-75
2022/12/12 02:19:12;;;;;;;17.23;10.68;;;4.60;99.90;;;;;;4958263;28;20273;-75
2022/12/12 02:21:50;;;;;;;18.53;11.13;;;4.50;99.90;;;;;;4958238;28;20302;-75
2022/12/12 02:24:50;;;;;;;24.20;12.63;;;4.50;99.90;;;;;;4942479;28;20471;-75
2022/12/12 02:27:28;;;;;;;18.80;10.45;;;4.60;99.90;;;;;;4939471;28;20179;-76
2022/12/12 02:30:03;;;;;;;16.65;10.80;;;4.50;99.90;;;;;;4973000;28;20181;-75
2022/12/12 02:32:36;;;;;;;16.85;10.60;;;4.50;99.90;;;;;;4961818;28;20214;-75
2022/12/12 02:35:11;;;;;;;16.20;11.02;;;4.50;99.90;;;;;;4977777;28;20206;-75
2022/12/12 02:38:04;;;;;;;17.80;10.60;;;4.50;99.90;;;;;;4978000;28;20193;-75
2022/12/12 02:40:55;;;;;;;20.33;11.00;;;4.50;99.90;;;;;;4992898;28;20202;-75
2022/12/12 02:43:46;;;;;;;21.60;12.23;;;4.50;99.90;;;;;;4992380;28;20570;-75
2022/12/12 02:46:23;;;;;;;21.50;11.38;;;4.50;99.90;;;;;;4995010;28;20159;-75
2022/12/12 02:48:49;;;;;;;20.08;11.63;;;4.50;99.90;;;;;;4961579;28;20218;-75
2022/12/12 02:51:17;;;;;;;18.57;11.13;;;4.50;99.90;;;;;;4961030;28;20260;-75
2022/12/12 02:53:46;;;;;;;19.42;11.90;;;4.50;99.90;;;;;;4977467;28;20741;-75
2022/12/12 02:56:43;;;;;;;17.77;10.80;;;4.50;99.90;;;;;;4945599;28;20313;-75
2022/12/12 02:59:21;;;;;;;17.08;10.95;;;4.50;99.90;;;;;;4977598;28;20377;-75
2022/12/12 03:02:05;;;;;;;16.83;10.60;;;4.50;99.90;;;;;;4976986;28;20234;-75
2022/12/12 03:08:06;;;;;;;16.45;10.65;;;4.50;99.90;;;;;;4961249;28;20573;-75
2022/12/12 03:10:55;;;;;;;15.48;9.82;;;4.50;99.90;;;;;;4994373;28;20182;-76
2022/12/12 03:13:36;;;;;;;13.27;9.38;;;4.50;99.90;;;;;;4968119;28;20698;-75
2022/12/12 03:16:12;;;;;;;16.38;10.52;;;4.50;99.90;;;;;;4960405;28;20210;-75
2022/12/12 03:18:59;;;;;;;16.17;9.93;;;4.50;99.90;;;;;;4960890;28;20248;-75
2022/12/12 03:21:53;;;;;;;18.30;10.57;;;4.50;99.90;;;;;;4973708;28;20280;-75
2022/12/12 03:24:26;;;;;;;16.73;11.23;;;4.40;99.90;;;;;;4990554;28;20193;-75
2022/12/12 03:27:12;;;;;;;16.35;11.27;;;4.50;99.90;;;;;;4960959;28;20175;-75
2022/12/12 03:29:54;;;;;;;20.20;10.25;;;4.50;99.90;;;;;;4993401;28;20700;-75
2022/12/12 03:32:29;;;;;;;17.70;10.68;;;4.50;99.90;;;;;;4959582;28;20566;-75
2022/12/12 03:35:17;;;;;;;14.85;10.32;;;4.50;99.90;;;;;;4960952;28;20186;-75
2022/12/12 03:37:56;;;;;;;15.57;9.80;;;4.50;99.90;;;;;;4976880;28;20698;-75
2022/12/12 03:40:48;;;;;;;19.77;12.02;;;4.40;99.90;;;;;;4977154;28;20210;-75
2022/12/12 03:43:20;;;;;;;14.40;9.23;;;4.40;99.90;;;;;;4975181;28;20209;-75
2022/12/12 03:46:16;;;;;;;17.45;10.52;;;4.40;99.90;;;;;;4960608;28;20641;-75
2022/12/12 03:48:50;;;;;;;19.05;10.35;;;4.40;99.90;;;;;;4993746;28;20206;-75
2022/12/12 03:51:32;;;;;;;17.60;11.30;;;4.40;99.90;;;;;;4975696;28;20264;-75
2022/12/12 03:54:24;;;;;;;16.25;11.07;;;4.50;99.90;;;;;;4976781;28;20196;-76
2022/12/12 03:57:01;;;;;;;17.98;11.02;;;4.50;99.90;;;;;;4968707;28;20665;-75
2022/12/12 03:59:43;;;;;;;16.63;10.27;;;4.50;99.90;;;;;;4976364;28;20190;-75
2022/12/12 04:02:24;;;;;;;18.50;10.40;;;4.40;99.90;;;;;;4976279;28;20210;-75
2022/12/12 04:05:09;;;;;;;17.70;11.25;;;4.40;99.90;;;;;;4976834;28;20670;-75
2022/12/12 04:07:43;;;;;;;18.98;10.27;;;4.40;99.90;;;;;;4960449;28;20174;-75
2022/12/12 04:13:28;;;;;;;14.10;10.05;;;4.50;99.90;;;;;;4961243;28;20342;-75
2022/12/12 04:16:31;;;;;;;18.00;10.85;;;4.40;99.90;;;;;;4941275;28;20210;-75
2022/12/12 04:23:14;;;;;;;20.85;10.75;;;4.40;99.90;;;;;;4945273;28;20655;-75
2022/12/12 04:25:06;;;;;;;17.80;11.35;;;4.40;99.90;;;;;;4992895;28;20191;-75
2022/12/12 04:27:52;;;;;;;17.85;10.75;;;4.40;99.90;;;;;;4993262;28;20276;-75
2022/12/12 04:30:18;;;;;;;18.90;10.02;;;4.40;99.90;;;;;;4959755;28;20258;-75
2022/12/12 04:32:53;;;;;;;17.65;11.45;;;4.40;99.90;;;;;;4959825;28;20210;-75
2022/12/12 04:35:33;;;;;;;16.88;10.23;;;4.40;99.90;;;;;;4975870;28;20192;-75
2022/12/12 04:38:09;;;;;;;18.88;11.95;;;4.40;99.90;;;;;;4975376;28;20214;-75
2022/12/12 04:40:39;;;;;;;15.90;10.45;;;4.40;99.90;;;;;;4959567;28;20557;-75
2022/12/12 04:43:15;;;;;;;21.50;11.77;;;4.40;99.90;;;;;;4975368;28;20214;-75
2022/12/12 04:45:48;;;;;;;17.65;10.65;;;4.40;99.90;;;;;;4992613;28;20186;-75
2022/12/12 04:48:21;;;;;;;16.55;9.82;;;4.40;99.90;;;;;;4975650;28;20276;-75
2022/12/12 04:50:51;;;;;;;15.65;9.98;;;4.40;99.90;;;;;;4992371;28;20215;-75
2022/12/12 04:53:25;;;;;;;16.88;11.35;;;4.40;99.90;;;;;;4959695;28;20541;-75
2022/12/12 04:56:00;;;;;;;18.77;11.60;;;4.40;99.90;;;;;;4975484;28;20199;-75
2022/12/12 04:58:30;;;;;;;19.60;11.18;;;4.40;99.90;;;;;;4959527;28;20288;-75
2022/12/12 05:01:08;;;;;;;19.02;11.43;;;4.40;99.90;;;;;;4992475;28;20198;-75
2022/12/12 05:03:37;;;;;;;16.02;11.02;;;4.40;99.90;;;;;;4975134;28;20577;-75
2022/12/12 05:06:10;;;;;;;17.17;10.38;;;4.40;99.90;;;;;;4975225;28;20279;-75
2022/12/12 05:08:52;;;;;;;14.75;9.40;;;4.40;99.90;;;;;;4959332;28;20174;-75
2022/12/12 05:11:20;;;;;;;17.10;10.25;;;4.40;99.90;;;;;;4992506;28;20284;-75
2022/12/12 05:13:49;;;;;;;15.00;9.65;;;4.40;99.90;;;;;;4975333;28;20174;-75
2022/12/12 05:16:46;;;;;;;16.33;10.55;;;4.40;99.90;;;;;;4959039;28;20197;-75
2022/12/12 05:19:12;;;;;;;14.48;10.18;;;4.40;99.90;;;;;;4972360;28;20195;-75
2022/12/12 05:21:40;;;;;;;16.80;10.53;;;4.40;99.90;;;;;;4958958;28;20217;-75
2022/12/12 05:24:06;;;;;;;17.00;10.75;;;4.40;99.90;;;;;;4974896;28;20460;-75
2022/12/12 05:26:35;;;;;;;18.90;11.95;;;4.40;99.90;;;;;;4975249;28;20190;-75
2022/12/12 05:29:04;;;;;;;17.27;11.70;;;4.40;99.90;;;;;;4959294;28;20589;-75
2022/12/12 05:31:32;;;;;;;15.50;9.90;;;4.40;99.90;;;;;;4992141;28;20201;-75
2022/12/12 05:34:04;;;;;;;19.40;12.15;;;4.40;99.90;;;;;;4959461;28;20182;-75
2022/12/12 05:36:32;;;;;;;17.08;10.23;;;4.40;99.90;;;;;;4975046;28;20214;-75
2022/12/12 05:38:58;;;;;;;15.80;9.50;;;4.40;99.90;;;;;;4974582;28;20208;-75
2022/12/12 05:41:24;;;;;;;15.70;9.37;;;4.40;99.90;;;;;;4974844;28;20500;-76
2022/12/12 05:43:52;;;;;;;16.00;9.50;;;4.40;99.90;;;;;;4958474;28;20884;-76
2022/12/12 05:46:20;;;;;;;13.93;9.60;;;4.40;99.90;;;;;;4958983;28;20237;-75
2022/12/12 05:48:49;;;;;;;17.63;11.43;;;4.40;99.90;;;;;;4974643;28;20194;-75
2022/12/12 05:51:19;;;;;;;17.08;10.07;;;4.40;99.90;;;;;;4958586;28;20214;-76
2022/12/12 05:53:48;;;;;;;17.08;11.00;;;4.40;99.90;;;;;;4958869;28;20670;-77
2022/12/12 05:56:14;;;;;;;16.10;9.77;;;4.40;99.90;;;;;;4992165;28;20689;-76
2022/12/12 05:58:41;;;;;;;14.70;9.40;;;4.40;99.90;;;;;;4974673;28;20210;-76
2022/12/12 06:01:08;;;;;;;14.68;10.43;;;4.40;99.90;;;;;;4992038;28;20559;-76
2022/12/12 06:03:36;;;;;;;16.25;10.20;;;4.40;99.90;;;;;;4992165;28;20559;-76
2022/12/12 06:06:05;;;;;;;17.45;10.07;;;4.40;99.90;;;;;;4961032;28;20182;-76
2022/12/12 06:08:31;;;;;;;16.23;10.82;;;4.40;99.90;;;;;;4962594;28;20704;-76
2022/12/12 06:11:06;;;;;;;16.38;10.15;;;4.30;99.90;;;;;;4984522;28;20259;-76
2022/12/12 06:13:38;;;;;;;17.02;10.70;;;4.30;99.90;;;;;;4962787;28;20183;-76
2022/12/12 06:16:13;;;;;;;15.90;11.00;;;4.30;99.90;;;;;;4962947;28;20217;-76
2022/12/12 06:18:39;;;;;;;14.50;9.43;;;4.30;99.90;;;;;;4961476;28;20215;-76
2022/12/12 06:21:11;;;;;;;18.58;11.40;;;4.30;99.90;;;;;;4978105;28;20198;-76
2022/12/12 06:23:43;;;;;;;15.07;10.00;;;4.30;99.90;;;;;;4977959;28;20257;-76
2022/12/12 06:26:13;;;;;;;16.40;10.63;;;4.30;99.90;;;;;;4979140;28;20181;-75
2022/12/12 06:28:40;;;;;;;15.40;10.32;;;4.30;99.90;;;;;;4961506;28;20202;-76
2022/12/12 06:31:08;;;;;;;15.50;10.63;;;4.30;99.90;;;;;;4978229;28;20198;-76
2022/12/12 06:33:37;;;;;;;13.07;9.73;;;4.30;99.90;;;;;;4962836;28;20652;-76
2022/12/12 06:36:23;;;;;;;16.50;11.02;;;4.30;99.90;;;;;;4962916;28;20201;-76
2022/12/12 06:38:56;;;;;;;16.88;10.38;;;4.30;99.90;;;;;;4961220;28;20544;-76
2022/12/12 06:41:24;;;;;;;13.50;10.05;;;4.30;99.90;;;;;;4961107;28;20225;-76
2022/12/12 06:43:52;;;;;;;16.13;10.50;;;4.30;99.90;;;;;;4978045;28;20202;-76
2022/12/12 06:46:24;;;;;;;16.55;9.60;;;4.30;99.90;;;;;;4962237;28;20178;-76
2022/12/12 06:48:53;;;;;;;15.82;9.73;;;4.30;99.90;;;;;;4962248;28;20181;-76
2022/12/12 06:51:32;;;;;;;16.35;10.60;;;4.30;99.90;;;;;;4977846;28;20714;-76
2022/12/12 06:54:03;;;;;;;13.05;9.05;;;4.30;99.90;;;;;;4978185;28;20159;-76
2022/12/12 06:56:29;;;;;;;22.10;11.82;;;4.30;99.90;;;;;;4961746;28;20648;-75
2022/12/12 06:58:58;;;;;;;16.13;10.30;;;4.30;99.90;;;;;;4977672;28;20660;-76
2022/12/12 07:01:24;;;;;;;15.32;10.38;;;4.30;99.90;;;;;;4961750;28;20218;-76
2022/12/12 07:03:53;;;;;;;14.63;10.27;;;4.30;99.90;;;;;;4961571;28;20207;-76
2022/12/12 07:06:23;;;;;;;14.55;10.57;;;4.30;99.90;;;;;;4977767;28;20161;-76
2022/12/12 07:08:50;;;;;;;17.00;10.15;;;4.30;99.90;;;;;;4974653;28;20178;-76
2022/12/12 07:11:19;;;;;;;16.77;10.65;;;4.20;99.90;;;;;;4967667;28;20203;-76
2022/12/12 07:13:49;;;;;;;14.25;9.35;;;4.20;99.90;;;;;;4945849;28;20538;-76
2022/12/12 07:16:20;;;;;;;17.08;10.55;;;4.30;99.90;;;;;;4945706;28;20281;-75
2022/12/12 07:18:46;;;;;;;16.27;11.40;;;4.20;99.90;;;;;;4976579;28;20167;-75
2022/12/12 07:21:17;;;;;;;16.52;10.20;;;4.20;99.90;;;;;;4994717;28;20676;-76
2022/12/12 07:23:45;;;;;;;15.63;10.00;;;4.20;99.90;;;;;;4976844;28;20256;-75
2022/12/12 07:26:18;;;;;;;21.73;10.77;;;4.20;99.90;;;;;;4977510;28;20167;-76
2022/12/12 07:28:50;;;;;;;14.05;9.35;;;4.20;99.90;;;;;;4977244;28;20199;-75
2022/12/12 07:31:19;;;;;;;17.08;11.15;;;4.20;99.90;;;;;;4961008;28;20311;-76
2022/12/12 07:33:48;;;;;;;17.25;10.45;;;4.20;99.90;;;;;;4977520;28;20217;-76
2022/12/12 07:36:15;;;;;;;17.30;10.65;;;4.20;99.90;;;;;;4976182;28;20202;-75
2022/12/12 07:38:42;;;;;;;16.15;9.85;;;4.20;99.90;;;;;;4944642;28;20182;-75
2022/12/12 07:41:15;;;;;;;16.42;10.90;;;4.20;99.90;;;;;;4976957;28;20641;-75
2022/12/12 07:43:43;;;;;;;16.73;9.45;;;4.20;99.90;;;;;;4941033;28;20227;-76
2022/12/12 07:46:14;;;;;;;15.95;10.48;;;4.20;99.90;;;;;;4948287;28;20190;-76
2022/12/12 07:48:43;;;;;;;16.75;11.05;;;4.20;99.90;;;;;;4960739;28;20177;-76
2022/12/12 07:51:12;;;;;;;15.63;9.85;;;4.20;99.90;;;;;;4976773;28;20233;-76
2022/12/12 07:53:38;;;;;;;14.25;9.77;;;4.20;99.90;;;;;;4961062;28;20309;-77
2022/12/12 07:56:11;;;;;;;16.90;11.10;;;4.20;99.90;;;;;;4960440;28;20214;-75
2022/12/12 07:58:37;;;;;;;14.82;9.48;;;4.20;99.90;;;;;;4976523;28;20667;-76
2022/12/12 08:01:12;;;;;;;14.80;8.73;;;4.20;99.90;;;;;;4960586;28;20214;-76
2022/12/12 08:03:43;;;;;;;16.38;11.52;;;4.20;99.90;;;;;;4960637;28;20232;-76
2022/12/12 08:06:15;;;;;;;13.77;9.55;;;4.20;99.90;;;;;;4979004;28;20174;-76
2022/12/12 08:08:41;;;;;;;18.90;11.00;;;4.20;99.90;;;;;;4990738;28;20275;-76
2022/12/12 08:11:10;;;;;;;16.75;10.07;;;4.20;99.90;;;;;;4957153;28;20205;-76
2022/12/12 08:13:39;;;;;;;14.57;10.45;;;4.20;99.90;;;;;;4960409;28;20186;-76
2022/12/12 08:16:11;;;;;;;13.82;10.43;;;4.20;99.90;;;;;;4976695;28;20178;-76
2022/12/12 08:18:37;;;;;;;16.70;10.25;;;4.20;99.90;;;;;;4975967;28;20257;-76
2022/12/12 08:21:10;;;;;;;16.57;9.40;;;4.20;99.90;;;;;;4965680;28;20205;-76
2022/12/12 08:23:38;;;;;;;15.90;9.77;;;4.20;99.90;;;;;;5038086;23;20503;-74
2022/12/12 08:26:09;;;;;;;15.15;9.90;;;4.20;99.90;;;;;;4956959;28;20266;-74
2022/12/12 08:28:42;;;;;;;14.85;9.60;;;4.20;99.90;;;;;;4970654;28;20208;-75
2022/12/12 08:31:08;;;;;;;13.93;9.73;;;4.20;99.90;;;;;;4940862;28;20229;-74
2022/12/12 08:33:34;;;;;;;18.30;10.85;;;4.20;99.90;;;;;;4946161;28;20197;-74
2022/12/12 08:36:22;;;;;;;18.98;9.93;;;4.20;99.90;;;;;;4974741;28;20177;-74
2022/12/12 08:38:49;;;;;;;18.45;10.48;;;4.20;99.90;;;;;;4957513;28;20195;-74
2022/12/12 08:41:16;;;;;;;17.20;11.48;;;4.10;99.90;;;;;;4957311;28;20210;-74
2022/12/12 08:43:43;;;;;;;15.55;10.32;;;4.10;99.90;;;;;;4957506;28;20215;-75
2022/12/12 08:46:10;;;;;;;13.00;9.15;;;4.10;99.90;;;;;;4926426;29;20211;-76
2022/12/12 08:48:36;;;;;;;15.52;10.38;;;4.10;99.90;;;;;;4955352;29;20246;-76
2022/12/12 08:51:02;;;;;;;13.30;9.47;;;4.10;99.90;;;;;;4922715;29;20231;-73
2022/12/12 08:53:28;;;;;;;15.43;10.60;;;4.10;99.90;;;;;;4922826;29;20458;-73
2022/12/12 08:55:54;;;;;;;11.00;8.55;;;4.10;99.90;;;;;;4955961;28;20187;-74
2022/12/12 08:58:21;;;;;;;15.30;10.03;;;4.10;99.90;;;;;;4974626;28;20167;-73
2022/12/12 09:00:47;;;;;;;15.85;10.18;;;4.10;99.90;;;;;;4974226;28;20452;-73
2022/12/12 09:03:17;;;;;;;16.52;9.38;;;4.10;99.90;;;;;;4957522;28;20592;-74
2022/12/12 09:05:46;;;;;;;13.93;9.80;;;4.10;99.90;;;;;;4941478;28;20191;-73
2022/12/12 09:08:13;;;;;;;17.67;10.20;;;4.10;99.90;;;;;;4912179;29;20171;-73
2022/12/12 09:10:41;;;;;;;16.92;9.73;;;4.10;99.90;;;;;;4920975;29;20592;-73
2022/12/12 09:13:07;;;;;;;12.88;9.38;;;4.10;99.90;;;;;;4969605;28;20203;-73
2022/12/12 09:15:36;;;;;;;16.40;9.60;;;4.10;99.90;;;;;;4922055;29;20211;-73
2022/12/12 09:18:03;;;;;;;12.80;8.88;;;4.10;99.90;;;;;;4922282;29;20601;-74
2022/12/12 09:20:29;;;;;;;15.77;8.40;;;4.10;99.90;;;;;;4953813;29;20168;-73
2022/12/12 09:22:55;;;;;;;15.02;9.65;;;4.10;99.90;;;;;;4937394;29;20214;-73
2022/12/12 09:25:21;;;;;;;13.30;8.75;;;4.10;99.90;;;;;;4922335;29;20183;-73
2022/12/12 09:27:48;;;;;;;15.13;9.23;;;4.10;99.90;;;;;;4947631;28;20186;-72
2022/12/12 09:30:14;;;;;;;14.25;8.90;;;4.10;99.90;;;;;;4961701;28;20172;-74
2022/12/12 09:32:43;;;;;;;14.52;9.02;;;4.10;99.90;;;;;;4945128;28;20203;-73
2022/12/12 09:35:10;;;;;;;16.13;9.05;;;4.10;99.90;;;;;;4937403;29;20251;-73
2022/12/12 09:37:36;;;;;;;11.98;8.55;;;4.10;99.90;;;;;;4928892;28;20199;-73
2022/12/12 09:40:03;;;;;;;14.20;9.20;;;4.10;99.90;;;;;;4920195;29;20203;-73
2022/12/12 09:42:39;;;;;;;13.23;9.13;;;4.10;99.90;;;;;;4936654;29;20224;-73
2022/12/12 09:45:06;;;;;;;13.98;7.93;;;4.10;99.90;;;;;;4905325;29;20651;-73
2022/12/12 09:47:45;;;;;;;12.18;8.30;;;4.10;99.90;;;;;;4921006;29;20172;-73
2022/12/12 09:50:18;;;;;;;14.95;8.98;;;4.10;99.90;;;;;;4952015;29;20673;-73
2022/12/12 09:52:49;;;;;;;13.85;8.10;;;4.10;99.90;;;;;;4940155;28;20683;-73
2022/12/12 09:55:36;;;;;;;14.05;8.45;;;4.10;99.90;;;;;;4921783;29;20215;-73
2022/12/12 09:58:26;;;;;;;12.20;8.80;;;4.10;99.90;;;;;;4939222;28;20213;-73
2022/12/12 10:01:19;;;;;;;12.73;8.38;;;4.10;99.90;;;;;;4938837;28;20686;-73
2022/12/12 10:03:49;;;;;;;16.45;9.13;;;4.10;99.90;;;;;;4940047;28;20214;-73
2022/12/12 10:06:17;;;;;;;11.93;8.25;;;4.10;99.90;;;;;;4956123;28;20182;-73
2022/12/12 10:08:46;;;;;;;11.40;7.00;;;4.10;99.90;;;;;;4937817;29;20247;-73
2022/12/12 10:14:10;;;;;;;13.50;7.93;;;4.10;99.90;;;;;;4954117;28;20198;-73
2022/12/12 10:16:37;;;;;;;13.20;8.45;;;4.10;99.90;;;;;;4956157;28;20650;-73
2022/12/12 10:19:19;;;;;;;19.88;9.30;;;4.10;99.90;;;;;;4955868;28;20209;-74
2022/12/12 10:21:48;;;;;;;16.20;8.02;;;4.00;99.90;;;;;;4954732;28;20206;-73
2022/12/12 10:24:28;;;;;;;12.85;7.68;;;4.00;99.90;;;;;;4938437;28;20221;-73
2022/12/12 10:26:56;;;;;;;16.02;9.52;;;4.10;99.90;;;;;;4955517;28;20647;-73
2022/12/12 10:29:26;;;;;;;14.20;8.27;;;4.10;99.90;;;;;;4936732;29;20168;-73
2022/12/12 10:32:05;;;;;;;15.18;8.35;;;4.10;99.90;;;;;;4932947;29;20214;-74
2022/12/12 10:34:57;;;;;;;13.13;8.30;;;4.10;99.90;;;;;;4918260;29;20601;-73
2022/12/12 10:37:52;;;;;;;13.90;9.40;;;4.10;99.90;;;;;;4886301;29;20224;-73
2022/12/12 10:40:57;;;;;;;12.65;8.25;;;4.10;99.90;;;;;;4922620;28;20279;-73
2022/12/12 10:43:31;;;;;;;11.73;7.78;;;4.10;99.90;;;;;;4939865;29;20336;-74
2022/12/12 10:46:13;;;;;;;16.38;8.07;;;4.10;99.90;;;;;;4936372;29;20607;-73
2022/12/12 10:48:39;;;;;;;11.98;7.88;;;4.10;99.90;;;;;;4935909;29;20630;-74
2022/12/12 10:51:10;;;;;;;13.82;7.95;;;4.10;99.90;;;;;;4953219;28;20244;-72
2022/12/12 10:53:41;;;;;;;13.63;8.65;;;4.10;99.90;;;;;;4955372;28;20212;-73
2022/12/12 10:56:25;;;;;;;16.77;8.55;;;4.10;99.90;;;;;;4938263;29;20175;-74
2022/12/12 10:58:56;;;;;;;13.20;7.35;;;4.10;99.90;;;;;;4955881;29;20210;-74
2022/12/12 11:01:34;;;;;;;12.52;8.00;;;4.20;99.90;;;;;;4922738;29;20218;-73
2022/12/12 11:04:02;;;;;;;12.35;7.65;;;4.20;99.90;;;;;;4938682;29;20258;-78
2022/12/12 11:06:44;;;;;;;14.02;8.52;;;4.20;99.90;;;;;;4955377;29;20192;-74
2022/12/12 11:09:22;;;;;;;14.32;8.93;;;4.20;99.90;;;;;;4946941;28;20752;-75
2022/12/12 11:11:57;;;;;;;13.18;8.27;;;4.20;99.90;;;;;;4939694;29;20206;-72
2022/12/12 11:14:44;;;;;;;10.82;7.05;;;4.20;99.90;;;;;;4923691;29;20282;-76
2022/12/12 11:17:30;;;;;;;19.33;8.50;;;4.20;99.90;;;;;;4939802;29;20167;-76
2022/12/12 11:20:02;;;;;;;16.60;8.80;;;4.20;99.90;;;;;;4934123;29;20203;-76
2022/12/12 11:22:34;;;;;;;14.98;8.48;;;4.20;99.90;;;;;;4922846;28;20207;-76
2022/12/12 11:25:02;;;;;;;18.10;10.23;;;4.20;99.90;;;;;;4922559;29;20183;-73
2022/12/12 11:27:36;;;;;;;11.68;8.07;;;4.20;99.90;;;;;;4906115;29;20176;-74
2022/12/12 11:30:06;;;;;;;14.43;8.52;;;4.20;99.90;;;;;;4919359;29;20192;-73
2022/12/12 11:32:46;;;;;;;15.05;9.00;;;4.20;99.90;;;;;;4931886;29;20210;-74
2022/12/12 11:35:36;;;;;;;12.23;8.20;;;4.20;99.90;;;;;;4922555;29;20278;-74
2022/12/12 11:38:24;;;;;;;14.10;7.82;;;4.20;99.90;;;;;;4938653;29;20168;-75
2022/12/12 11:41:06;;;;;;;12.48;8.45;;;4.20;99.90;;;;;;4935351;29;20822;-75
2022/12/12 11:43:39;;;;;;;13.60;8.55;;;4.20;99.90;;;;;;4908900;29;20218;-75
2022/12/12 11:46:14;;;;;;;11.48;8.23;;;4.20;99.90;;;;;;4934546;29;20203;-75
2022/12/12 11:48:51;;;;;;;13.13;9.13;;;4.20;99.90;;;;;;4920481;29;20537;-75
2022/12/12 11:51:37;;;;;;;14.18;8.00;;;4.20;99.90;;;;;;4952569;28;20218;-75
2022/12/12 11:54:11;;;;;;;10.98;7.38;;;4.20;99.90;;;;;;4917050;29;20770;-74
2022/12/12 11:56:56;;;;;;;15.82;8.18;;;4.20;99.90;;;;;;4940489;29;20652;-74
2022/12/12 11:59:22;;;;;;;10.85;7.72;;;4.20;99.90;;;;;;4934017;29;20216;-75
2022/12/12 12:01:58;;;;;;;14.38;9.13;;;4.20;99.90;;;;;;4926196;29;20639;-75
2022/12/12 12:04:50;;;;;;;13.15;8.43;;;4.20;99.90;;;;;;4915981;29;20616;-75
2022/12/12 12:07:47;;;;;;;14.00;8.20;;;4.20;99.90;;;;;;4935459;29;20246;-75
2022/12/12 12:10:31;;;;;;;14.05;8.43;;;4.20;99.90;;;;;;4935249;29;20605;-75
2022/12/12 12:13:12;;;;;;;14.45;8.68;;;4.20;99.90;;;;;;4915800;29;20211;-75
2022/12/12 12:16:00;;;;;;;11.95;7.90;;;4.20;99.90;;;;;;4948572;29;20211;-75
2022/12/12 12:19:02;;;;;;;14.07;8.82;;;4.20;99.90;;;;;;4934801;29;20275;-75
2022/12/12 12:21:40;;;;;;;12.02;8.25;;;4.20;99.90;;;;;;4894963;29;20235;-75
2022/12/12 12:24:40;;;;;;;12.30;7.78;;;4.20;99.90;;;;;;4918952;29;20207;-75
2022/12/12 12:27:18;;;;;;;15.48;8.73;;;4.20;99.90;;;;;;4935365;29;20255;-75
2022/12/12 12:30:12;;;;;;;14.63;8.23;;;4.20;99.90;;;;;;4935312;29;20184;-75
2022/12/12 12:32:54;;;;;;;13.98;8.40;;;4.20;99.90;;;;;;4919773;29;20539;-75
2022/12/12 12:35:43;;;;;;;11.60;8.13;;;4.20;99.90;;;;;;4919382;29;20616;-75
2022/12/12 12:38:32;;;;;;;15.15;8.32;;;4.20;99.90;;;;;;4936130;29;20681;-75
2022/12/12 12:41:25;;;;;;;14.15;7.72;;;4.20;99.90;;;;;;4921198;29;20214;-75
2022/12/12 12:44:20;;;;;;;11.73;7.72;;;4.20;99.90;;;;;;4923877;29;20286;-75
2022/12/12 12:46:59;;;;;;;10.65;7.00;;;4.20;99.90;;;;;;4931002;29;20204;-75
2022/12/12 12:49:31;;;;;;;13.35;7.07;;;4.20;99.90;;;;;;4905261;29;20720;-75
2022/12/12 12:52:01;;;;;;;13.23;7.88;;;4.20;99.90;;;;;;4936431;29;20214;-76
2022/12/12 12:54:37;;;;;;;12.25;7.75;;;4.20;99.90;;;;;;4905588;29;20224;-76
2022/12/12 12:57:49;;;;;;;10.65;7.28;;;4.20;99.90;;;;;;4954194;29;20704;-75
2022/12/12 13:00:22;;;;;;;11.07;7.50;;;4.20;99.90;;;;;;4879532;29;20642;-74
2022/12/12 13:03:07;;;;;;;13.48;7.07;;;4.20;99.90;;;;;;4895113;29;20790;-74
2022/12/12 13:05:45;;;;;;;10.75;7.35;;;4.20;99.90;;;;;;4891102;29;20229;-75
2022/12/12 13:08:23;;;;;;;10.15;6.25;;;4.20;99.90;;;;;;4849113;29;20186;-74
2022/12/12 13:11:00;;;;;;;10.25;6.88;;;4.20;99.90;;;;;;4895094;29;20189;-75
2022/12/12 13:13:37;;;;;;;11.35;7.80;;;4.30;99.90;;;;;;4863836;29;20181;-75
2022/12/12 13:16:24;;;;;;;11.00;7.35;;;4.30;99.90;;;;;;4895679;29;20277;-75
2022/12/12 13:19:10;;;;;;;11.25;6.72;;;4.30;99.90;;;;;;4861074;29;20226;-74
2022/12/12 13:21:48;;;;;;;10.52;7.00;;;4.30;99.90;;;;;;4870341;29;20212;-75
2022/12/12 13:24:33;;;;;;;12.93;7.45;;;4.30;99.90;;;;;;4879230;29;20221;-75
2022/12/12 13:27:01;;;;;;;10.95;6.57;;;4.30;99.90;;;;;;4895140;29;20164;-75